createdAt,value
2023-05-13T00:02:58.728Z,22.71
2023-05-13T00:05:45.611Z,22.71
2023-05-13T00:08:30.817Z,22.71
2023-05-13T00:11:16.066Z,22.72
2023-05-13T00:14:01.124Z,22.73
2023-05-13T00:16:46.456Z,22.72
2023-05-13T00:19:31.887Z,22.68
2023-05-13T00:22:17.409Z,22.72
2023-05-13T00:25:02.262Z,22.68
2023-05-13T00:27:47.504Z,22.65
2023-05-13T00:30:32.901Z,22.69
2023-05-13T00:33:18.021Z,22.68
2023-05-13T00:36:03.947Z,22.68
2023-05-13T00:38:49.062Z,22.68
2023-05-13T00:41:34.188Z,22.68
2023-05-13T00:44:19.286Z,22.67
2023-05-13T00:47:07.953Z,22.68
2023-05-13T00:49:53.017Z,22.71
2023-05-13T00:52:39.464Z,22.70
2023-05-13T00:55:24.796Z,22.67
2023-05-13T00:58:11.355Z,22.67
2023-05-13T01:01:17.542Z,22.66
2023-05-13T01:04:25.881Z,22.67
2023-05-13T01:07:21.834Z,22.66
2023-05-13T01:10:17.388Z,22.66
2023-05-13T01:13:08.648Z,22.66
2023-05-13T01:16:03.008Z,22.63
2023-05-13T01:18:54.120Z,22.66
2023-05-13T01:21:40.184Z,22.64
2023-05-13T01:24:25.274Z,22.65
2023-05-13T01:27:11.856Z,22.68
2023-05-13T01:29:57.162Z,22.66
2023-05-13T01:32:47.817Z,22.65
2023-05-13T01:35:34.951Z,22.64
2023-05-13T01:38:21.861Z,22.64
2023-05-13T01:41:11.598Z,22.62
2023-05-13T01:43:57.649Z,22.61
2023-05-13T01:46:44.016Z,22.62
2023-05-13T01:49:29.625Z,22.61
2023-05-13T01:52:15.011Z,22.61
2023-05-13T01:55:00.602Z,22.64
2023-05-13T01:57:46.077Z,22.62
2023-05-13T02:00:31.491Z,22.62
2023-05-13T02:03:17.134Z,22.64
2023-05-13T02:06:02.244Z,22.62
2023-05-13T02:08:47.548Z,22.62
2023-05-13T02:11:32.827Z,22.59
2023-05-13T02:14:18.248Z,22.58
2023-05-13T02:17:03.716Z,22.59
2023-05-13T02:19:49.044Z,22.60
2023-05-13T02:22:34.331Z,22.59
2023-05-13T02:25:19.566Z,22.58
2023-05-13T02:28:04.916Z,22.56
2023-05-13T02:30:50.618Z,22.56
2023-05-13T02:33:36.198Z,22.50
2023-05-13T02:36:21.124Z,22.54
2023-05-13T02:39:07.260Z,22.54
2023-05-13T02:41:53.453Z,22.53
2023-05-13T02:44:38.946Z,22.52
2023-05-13T02:47:24.236Z,22.52
2023-05-13T02:50:10.135Z,22.55
2023-05-13T02:52:56.323Z,22.54
2023-05-13T02:55:42.689Z,22.52
2023-05-13T02:58:27.770Z,22.51
2023-05-13T03:01:13.692Z,22.52
2023-05-13T03:03:58.913Z,22.34
2023-05-13T03:06:44.379Z,22.50
2023-05-13T03:09:30.866Z,22.50
2023-05-13T03:12:16.614Z,22.50
2023-05-13T03:15:01.964Z,22.50
2023-05-13T03:17:47.293Z,22.49
2023-05-13T03:20:32.694Z,22.51
2023-05-13T03:23:20.074Z,22.51
2023-05-13T03:26:09.353Z,22.50
2023-05-13T03:28:54.486Z,22.48
2023-05-13T03:31:40.335Z,22.46
2023-05-13T03:34:25.883Z,22.46
2023-05-13T03:37:11.785Z,22.46
2023-05-13T03:39:56.916Z,22.46
2023-05-13T03:42:43.386Z,22.48
2023-05-13T03:45:28.492Z,22.48
2023-05-13T03:48:20.140Z,22.46
2023-05-13T03:51:05.708Z,22.46
2023-05-13T03:53:50.748Z,22.46
2023-05-13T03:56:36.809Z,22.47
2023-05-13T03:59:22.152Z,22.46
2023-05-13T04:02:07.552Z,22.46
2023-05-13T04:04:53.188Z,22.44
2023-05-13T04:07:38.661Z,22.44
2023-05-13T04:10:24.238Z,22.41
2023-05-13T04:13:09.362Z,22.42
2023-05-13T04:15:55.393Z,22.44
2023-05-13T04:18:40.585Z,22.43
2023-05-13T04:21:25.950Z,22.40
2023-05-13T04:24:10.999Z,22.41
2023-05-13T04:26:55.832Z,22.41
2023-05-13T04:29:42.309Z,22.41
2023-05-13T04:32:27.668Z,22.37
2023-05-13T04:35:14.031Z,22.41
2023-05-13T04:38:02.384Z,22.39
2023-05-13T04:40:48.155Z,22.39
2023-05-13T04:43:39.134Z,22.37
2023-05-13T04:46:25.957Z,22.41
2023-05-13T04:49:11.243Z,22.42
2023-05-13T04:51:57.213Z,22.44
2023-05-13T04:54:42.545Z,22.47
2023-05-13T04:57:27.708Z,22.46
2023-05-13T05:00:13.322Z,22.46
2023-05-13T05:03:00.189Z,22.48
2023-05-13T05:05:45.478Z,22.47
2023-05-13T05:08:33.156Z,22.50
2023-05-13T05:11:18.323Z,22.48
2023-05-13T05:14:03.732Z,22.48
2023-05-13T05:16:49.406Z,22.51
2023-05-13T05:19:34.814Z,22.47
2023-05-13T05:22:21.024Z,22.42
2023-05-13T05:25:06.807Z,22.44
2023-05-13T05:27:51.925Z,22.41
2023-05-13T05:30:39.778Z,22.43
2023-05-13T05:33:31.339Z,22.45
2023-05-13T05:36:16.767Z,22.43
2023-05-13T05:39:02.281Z,22.44
2023-05-13T05:41:50.850Z,22.45
2023-05-13T05:44:36.502Z,22.46
2023-05-13T05:47:22.245Z,22.46
2023-05-13T05:50:07.779Z,22.45
2023-05-13T05:52:53.158Z,22.41
2023-05-13T05:55:39.737Z,22.48
2023-05-13T05:58:27.024Z,22.49
2023-05-13T06:01:12.236Z,22.46
2023-05-13T06:03:57.636Z,22.49
2023-05-13T06:06:43.368Z,22.49
2023-05-13T06:09:28.902Z,22.50
2023-05-13T06:12:13.991Z,22.47
2023-05-13T06:14:59.875Z,22.46
2023-05-13T06:17:45.297Z,22.47
2023-05-13T06:20:30.326Z,22.48
2023-05-13T06:23:15.604Z,22.49
2023-05-13T06:26:00.651Z,22.53
2023-05-13T06:28:45.918Z,22.53
2023-05-13T06:31:31.410Z,22.48
2023-05-13T06:34:16.717Z,22.53
2023-05-13T06:37:01.797Z,22.53
2023-05-13T06:39:47.752Z,22.56
2023-05-13T06:42:36.359Z,22.56
2023-05-13T06:45:29.662Z,22.57
2023-05-13T06:48:16.078Z,22.56
2023-05-13T06:51:01.332Z,22.59
2023-05-13T06:53:46.339Z,22.59
2023-05-13T06:56:31.485Z,22.58
2023-05-13T06:59:16.631Z,22.56
2023-05-13T07:02:01.873Z,22.58
2023-05-13T07:04:46.815Z,22.60
2023-05-13T07:07:32.064Z,22.47
2023-05-13T07:10:17.637Z,22.55
2023-05-13T07:13:02.854Z,22.60
2023-05-13T07:15:48.150Z,22.63
2023-05-13T07:18:33.991Z,22.59
2023-05-13T07:21:19.331Z,22.62
2023-05-13T07:24:05.455Z,22.60
2023-05-13T07:26:50.585Z,22.60
2023-05-13T07:29:35.702Z,22.58
2023-05-13T07:32:21.022Z,22.62
2023-05-13T07:35:07.246Z,22.65
2023-05-13T07:37:52.264Z,22.64
2023-05-13T07:40:37.445Z,22.63
2023-05-13T07:43:26.573Z,22.60
2023-05-13T07:46:12.003Z,22.58
2023-05-13T07:48:57.403Z,22.55
2023-05-13T07:51:42.716Z,22.56
2023-05-13T07:54:28.402Z,22.56
2023-05-13T07:57:13.512Z,22.53
2023-05-13T07:59:58.582Z,22.56
2023-05-13T08:02:43.975Z,22.56
2023-05-13T08:05:29.150Z,22.56
2023-05-13T08:08:14.441Z,22.58
2023-05-13T08:10:59.418Z,22.57
2023-05-13T08:13:44.603Z,22.57
2023-05-13T08:16:29.838Z,22.57
2023-05-13T08:19:15.472Z,22.55
2023-05-13T08:22:00.888Z,22.57
2023-05-13T08:24:46.000Z,22.57
2023-05-13T08:27:31.601Z,22.61
2023-05-13T08:30:16.668Z,22.60
2023-05-13T08:33:01.469Z,22.60
2023-05-13T08:35:47.145Z,22.60
2023-05-13T08:38:33.573Z,22.57
2023-05-13T08:41:20.555Z,22.58
2023-05-13T08:44:07.476Z,22.57
2023-05-13T08:47:02.205Z,22.53
2023-05-13T08:49:48.100Z,22.58
2023-05-13T08:52:33.529Z,22.57
2023-05-13T08:55:19.445Z,22.57
2023-05-13T08:58:04.872Z,22.57
2023-05-13T09:00:50.888Z,22.47
2023-05-13T09:03:41.613Z,22.44
2023-05-13T09:06:26.725Z,22.45
2023-05-13T09:09:11.876Z,22.44
2023-05-13T09:11:57.561Z,22.43
2023-05-13T09:14:43.065Z,22.43
2023-05-13T09:17:27.949Z,22.43
2023-05-13T09:20:15.158Z,22.44
2023-05-13T09:23:02.298Z,22.42
2023-05-13T09:25:47.473Z,22.43
2023-05-13T09:28:32.954Z,22.46
2023-05-13T09:31:32.655Z,22.44
2023-05-13T09:34:29.215Z,22.43
2023-05-13T09:37:18.572Z,22.43
2023-05-13T09:40:03.868Z,22.40
2023-05-13T09:42:49.254Z,22.36
2023-05-13T09:45:34.766Z,22.38
2023-05-13T09:48:21.787Z,22.35
2023-05-13T09:51:07.009Z,22.22
2023-05-13T09:53:52.200Z,22.37
2023-05-13T09:56:37.272Z,22.36
2023-05-13T09:59:22.643Z,22.38
2023-05-13T10:02:08.333Z,22.35
2023-05-13T10:04:55.793Z,22.40
2023-05-13T10:07:41.959Z,22.40
2023-05-13T10:10:29.506Z,22.41
2023-05-13T10:13:16.517Z,22.41
2023-05-13T10:16:02.086Z,22.42
2023-05-13T10:18:47.829Z,22.42
2023-05-13T10:21:33.777Z,22.41
2023-05-13T10:24:19.658Z,22.42
2023-05-13T10:27:06.547Z,22.43
2023-05-13T10:29:52.731Z,22.44
2023-05-13T10:32:39.912Z,22.43
2023-05-13T10:35:29.214Z,22.44
2023-05-13T10:38:20.911Z,22.44
2023-05-13T10:41:48.223Z,22.45
2023-05-13T10:44:35.583Z,22.45
2023-05-13T10:47:21.167Z,22.46
2023-05-13T10:50:07.872Z,22.46
2023-05-13T10:52:56.776Z,22.47
2023-05-13T10:55:45.458Z,22.40
2023-05-13T10:58:32.634Z,22.44
2023-05-13T11:01:21.097Z,22.45
2023-05-13T11:04:06.387Z,22.44
2023-05-13T11:06:52.692Z,22.43
2023-05-13T11:09:38.226Z,22.37
2023-05-13T11:12:23.216Z,22.44
2023-05-13T11:15:21.124Z,22.44
2023-05-13T11:18:06.041Z,22.48
2023-05-13T11:20:54.132Z,22.44
2023-05-13T11:23:58.168Z,22.46
2023-05-13T11:26:52.266Z,22.47
2023-05-13T11:29:38.814Z,22.47
2023-05-13T11:32:53.395Z,22.43
2023-05-13T11:35:38.565Z,22.48
2023-05-13T11:38:25.015Z,22.48
2023-05-13T11:41:11.440Z,22.42
2023-05-13T11:43:59.350Z,22.48
2023-05-13T11:46:55.472Z,22.47
2023-05-13T11:49:44.208Z,22.48
2023-05-13T11:52:29.414Z,22.44
2023-05-13T11:55:27.691Z,22.46
2023-05-13T11:58:13.728Z,22.47
2023-05-13T12:01:00.093Z,22.47
2023-05-13T12:03:45.259Z,22.47
2023-05-13T12:06:30.400Z,22.48
2023-05-13T12:09:15.463Z,22.47
2023-05-13T12:12:01.035Z,22.51
2023-05-13T12:14:46.366Z,22.51
2023-05-13T12:17:32.370Z,22.53
2023-05-13T12:20:19.942Z,22.52
2023-05-13T12:23:06.164Z,22.49
2023-05-13T12:25:51.691Z,22.46
2023-05-13T12:28:37.020Z,22.40
2023-05-13T12:31:23.966Z,22.37
2023-05-13T12:34:09.497Z,22.30
2023-05-13T12:36:55.002Z,22.30
2023-05-13T12:39:41.574Z,22.28
2023-05-13T12:42:27.010Z,22.28
2023-05-13T12:45:12.229Z,22.27
2023-05-13T12:47:58.542Z,22.27
2023-05-13T12:50:44.057Z,22.21
2023-05-13T12:53:29.571Z,22.27
2023-05-13T12:56:14.538Z,22.29
2023-05-13T12:59:00.163Z,22.32
2023-05-13T13:01:47.984Z,22.32
2023-05-13T13:04:33.393Z,22.33
2023-05-13T13:07:18.367Z,22.33
2023-05-13T13:10:05.990Z,22.32
2023-05-13T13:12:52.207Z,22.30
2023-05-13T13:15:37.893Z,22.27
2023-05-13T13:18:24.457Z,22.27
2023-05-13T13:21:10.187Z,22.26
2023-05-13T13:23:54.993Z,22.26
2023-05-13T13:26:40.550Z,22.27
2023-05-13T13:29:25.557Z,22.31
2023-05-13T13:32:11.260Z,22.32
2023-05-13T13:34:58.271Z,22.35
2023-05-13T13:37:43.261Z,22.33
2023-05-13T13:40:28.325Z,22.33
2023-05-13T13:43:13.497Z,22.33
2023-05-13T13:45:58.587Z,22.32
2023-05-13T13:48:43.614Z,22.32
2023-05-13T13:51:28.764Z,22.30
2023-05-13T13:54:13.921Z,22.31
2023-05-13T13:56:59.370Z,22.28
2023-05-13T13:59:44.412Z,22.33
2023-05-13T14:02:29.419Z,22.33
2023-05-13T14:05:15.735Z,22.33
2023-05-13T14:08:01.046Z,22.34
2023-05-13T14:10:46.213Z,22.34
2023-05-13T14:13:31.422Z,22.35
2023-05-13T14:16:16.676Z,22.35
2023-05-13T14:19:02.176Z,22.36
2023-05-13T14:21:47.306Z,22.36
2023-05-13T14:24:33.010Z,22.37
2023-05-13T14:27:18.580Z,22.36
2023-05-13T14:30:06.205Z,22.36
2023-05-13T14:32:51.234Z,22.36
2023-05-13T14:35:36.579Z,22.36
2023-05-13T14:38:21.944Z,22.35
2023-05-13T14:41:07.154Z,22.35
2023-05-13T14:43:52.010Z,22.36
2023-05-13T14:46:38.371Z,22.37
2023-05-13T14:49:23.508Z,22.36
2023-05-13T14:52:08.720Z,22.37
2023-05-13T14:54:54.313Z,22.34
2023-05-13T14:57:39.855Z,22.36
2023-05-13T15:00:24.935Z,22.37
2023-05-13T15:03:10.083Z,22.36
2023-05-13T15:05:57.149Z,22.36
2023-05-13T15:08:42.218Z,22.37
2023-05-13T15:11:30.575Z,22.36
2023-05-13T15:14:17.859Z,22.36
2023-05-13T15:17:03.311Z,22.36
2023-05-13T15:19:48.586Z,22.36
2023-05-13T15:22:34.333Z,22.35
2023-05-13T15:25:19.629Z,22.35
2023-05-13T15:28:04.900Z,22.36
2023-05-13T15:30:50.186Z,22.35
2023-05-13T15:33:35.231Z,22.31
2023-05-13T15:36:20.534Z,22.36
2023-05-13T15:39:05.799Z,22.36
2023-05-13T15:41:50.976Z,22.36
2023-05-13T15:44:36.314Z,22.39
2023-05-13T15:47:21.735Z,22.37
2023-05-13T15:50:07.573Z,22.35
2023-05-13T15:52:54.678Z,22.33
2023-05-13T15:55:39.985Z,22.30
2023-05-13T15:58:25.248Z,22.28
2023-05-13T16:01:10.534Z,22.25
2023-05-13T16:03:55.782Z,22.28
2023-05-13T16:06:41.073Z,22.28
2023-05-13T16:09:26.162Z,22.28
2023-05-13T16:12:10.958Z,22.30
2023-05-13T16:14:55.960Z,22.26
2023-05-13T16:17:41.454Z,22.25
2023-05-13T16:20:26.785Z,22.22
2023-05-13T16:23:11.732Z,22.22
2023-05-13T16:25:56.639Z,22.18
2023-05-13T16:28:41.912Z,22.24
2023-05-13T16:31:27.005Z,22.24
2023-05-13T16:34:12.042Z,22.26
2023-05-13T16:36:59.031Z,22.27
2023-05-13T16:39:44.747Z,22.28
2023-05-13T16:42:29.703Z,22.30
2023-05-13T16:45:14.531Z,22.33
2023-05-13T16:48:00.097Z,22.33
2023-05-13T16:50:45.721Z,22.32
2023-05-13T16:53:30.994Z,22.33
2023-05-13T16:56:16.529Z,22.32
2023-05-13T16:59:01.339Z,22.33
2023-05-13T17:01:46.761Z,22.34
2023-05-13T17:04:32.314Z,22.36
2023-05-13T17:07:17.430Z,22.35
2023-05-13T17:10:02.450Z,22.33
2023-05-13T17:12:47.587Z,22.35
2023-05-13T17:15:32.497Z,22.36
2023-05-13T17:18:17.958Z,22.36
2023-05-13T17:21:04.175Z,22.37
2023-05-13T17:23:49.129Z,22.37
2023-05-13T17:26:36.077Z,22.37
2023-05-13T17:29:23.862Z,22.36
2023-05-13T17:32:08.822Z,22.35
2023-05-13T17:34:54.056Z,22.36
2023-05-13T17:37:39.510Z,22.37
2023-05-13T17:40:24.883Z,22.39
2023-05-13T17:43:10.512Z,22.39
2023-05-13T17:45:55.818Z,22.36
2023-05-13T17:48:41.063Z,22.37
2023-05-13T17:51:26.282Z,22.36
2023-05-13T17:54:11.401Z,22.38
2023-05-13T17:56:56.568Z,22.37
2023-05-13T17:59:42.627Z,22.33
2023-05-13T18:02:27.714Z,22.35
2023-05-13T18:05:12.957Z,22.30
2023-05-13T18:07:58.666Z,22.32
2023-05-13T18:10:43.823Z,22.32
2023-05-13T18:13:29.878Z,22.32
2023-05-13T18:16:16.101Z,22.31
2023-05-13T18:19:02.749Z,22.31
2023-05-13T18:21:48.233Z,22.33
2023-05-13T18:24:33.559Z,22.32
2023-05-13T18:27:18.455Z,22.32
2023-05-13T18:30:03.860Z,22.30
2023-05-13T18:32:49.024Z,22.30
2023-05-13T18:35:34.230Z,22.32
2023-05-13T18:38:19.322Z,22.31
2023-05-13T18:41:05.022Z,22.33
2023-05-13T18:43:50.132Z,22.33
2023-05-13T18:46:35.317Z,22.33
2023-05-13T18:49:20.686Z,22.34
2023-05-13T18:52:06.193Z,22.36
2023-05-13T18:54:51.715Z,22.35
2023-05-13T18:57:37.093Z,22.37
2023-05-13T19:00:22.220Z,22.35
2023-05-13T19:03:07.760Z,22.34
2023-05-13T19:05:53.080Z,22.33
2023-05-13T19:08:38.153Z,22.33
2023-05-13T19:11:26.457Z,22.30
2023-05-13T19:14:11.502Z,22.31
2023-05-13T19:16:56.547Z,22.30
2023-05-13T19:19:42.964Z,22.28
2023-05-13T19:22:28.133Z,22.29
2023-05-13T19:25:13.271Z,22.30
2023-05-13T19:27:58.691Z,22.31
2023-05-13T19:30:43.979Z,22.31
2023-05-13T19:33:29.495Z,22.32
2023-05-13T19:36:14.626Z,22.32
2023-05-13T19:38:59.593Z,22.26
2023-05-13T19:41:47.110Z,22.28
2023-05-13T19:44:32.173Z,22.27
2023-05-13T19:47:17.254Z,22.26
2023-05-13T19:50:02.557Z,22.26
2023-05-13T19:52:48.019Z,22.26
2023-05-13T19:55:33.372Z,22.25
2023-05-13T19:58:18.553Z,22.26
2023-05-13T20:01:03.970Z,22.28
2023-05-13T20:03:49.105Z,22.27
2023-05-13T20:06:34.096Z,22.26
2023-05-13T20:09:19.224Z,22.26
2023-05-13T20:12:04.959Z,22.26
2023-05-13T20:14:51.849Z,22.26
2023-05-13T20:17:37.335Z,22.27
2023-05-13T20:20:22.787Z,22.25
2023-05-13T20:23:08.304Z,22.23
2023-05-13T20:25:59.587Z,22.24
2023-05-13T20:28:47.663Z,22.27
2023-05-13T20:31:32.784Z,22.21
2023-05-13T20:34:17.981Z,22.20
2023-05-13T20:37:04.222Z,22.22
2023-05-13T20:39:49.407Z,22.22
2023-05-13T20:42:34.828Z,22.21
2023-05-13T20:45:19.882Z,22.21
2023-05-13T20:48:06.549Z,22.22
2023-05-13T20:50:58.630Z,22.22
2023-05-13T20:53:46.401Z,22.22
2023-05-13T20:56:31.781Z,22.21
2023-05-13T20:59:17.067Z,22.21
2023-05-13T21:02:02.404Z,22.24
2023-05-13T21:04:47.555Z,22.22
2023-05-13T21:07:35.235Z,22.22
2023-05-13T21:10:21.393Z,22.20
2023-05-13T21:13:07.085Z,22.19
2023-05-13T21:15:52.265Z,22.18
2023-05-13T21:18:37.578Z,22.17
2023-05-13T21:21:22.809Z,22.18
2023-05-13T21:24:07.810Z,22.17
2023-05-13T21:26:53.766Z,22.17
2023-05-13T21:29:38.707Z,22.16
2023-05-13T21:32:23.962Z,22.17
2023-05-13T21:35:09.429Z,22.15
2023-05-13T21:38:04.504Z,22.16
2023-05-13T21:40:56.214Z,22.15
2023-05-13T21:43:41.790Z,22.12
2023-05-13T21:46:26.906Z,22.15
2023-05-13T21:49:12.247Z,22.14
2023-05-13T21:51:57.402Z,22.15
2023-05-13T21:54:42.711Z,22.13
2023-05-13T21:57:28.253Z,22.13
2023-05-13T22:00:19.182Z,22.12
2023-05-13T22:03:05.881Z,22.13
2023-05-13T22:05:51.450Z,22.09
2023-05-13T22:08:36.560Z,22.11
2023-05-13T22:11:21.931Z,22.11
2023-05-13T22:14:07.076Z,22.10
2023-05-13T22:17:07.608Z,22.12
2023-05-13T22:19:54.804Z,22.13
2023-05-13T22:22:40.025Z,22.13
2023-05-13T22:25:25.259Z,22.11
2023-05-13T22:28:10.556Z,22.09
2023-05-13T22:30:56.892Z,22.09
2023-05-13T22:33:41.964Z,22.08
2023-05-13T22:36:27.282Z,22.09
2023-05-13T22:39:13.396Z,22.08
2023-05-13T22:41:58.183Z,22.08
2023-05-13T22:44:43.208Z,22.07
2023-05-13T22:47:28.313Z,22.06
2023-05-13T22:50:13.519Z,22.06
2023-05-13T22:52:58.926Z,22.05
2023-05-13T22:55:43.962Z,22.06
2023-05-13T22:58:29.332Z,22.03
2023-05-13T23:01:15.343Z,22.05
2023-05-13T23:04:01.251Z,22.06
2023-05-13T23:06:46.264Z,22.05
2023-05-13T23:09:31.677Z,22.05
2023-05-13T23:12:16.949Z,22.05
2023-05-13T23:15:02.005Z,22.08
2023-05-13T23:17:47.333Z,22.07
2023-05-13T23:20:32.455Z,22.06
2023-05-13T23:23:17.632Z,21.98
2023-05-13T23:26:05.703Z,22.05
2023-05-13T23:28:51.084Z,22.04
2023-05-13T23:31:36.350Z,22.00
2023-05-13T23:34:21.645Z,22.00
2023-05-13T23:37:06.509Z,22.03
2023-05-13T23:39:51.419Z,22.03
2023-05-13T23:42:36.359Z,22.03
2023-05-13T23:45:21.745Z,22.04
2023-05-13T23:48:06.784Z,22.06
2023-05-13T23:50:51.807Z,22.05
2023-05-13T23:53:36.723Z,22.04
2023-05-13T23:56:22.400Z,22.02
2023-05-13T23:59:08.533Z,22.04
